Time,TemperatureF,DewpointF,PressureIn,WindDirection,WindDirectionDegrees,WindSpeedMPH,WindSpeedGustMPH,Humidity,HourlyPrecipIn,Conditions,Clouds,dailyrainin,SoftwareType,DateUTC
2013-07-08 00:00:00,81.8,51.5,29.80,East,101,0.0,0.0,35,0.00,,,0.03,Wunderground v.1.15,2013-07-08 06:00:00,
2013-07-08 00:05:00,81.8,51.5,29.80,East,101,0.0,0.0,35,0.00,,,0.00,Wunderground v.1.15,2013-07-08 06:05:00,
2013-07-08 00:10:00,81.7,51.4,29.80,East,101,0.0,0.0,35,0.00,,,0.00,Wunderground v.1.15,2013-07-08 06:10:00,
2013-07-08 00:15:00,81.7,52.1,29.80,East,101,0.0,0.0,36,0.00,,,0.00,Wunderground v.1.15,2013-07-08 06:15:00,
2013-07-08 00:20:00,81.6,52.1,29.80,East,101,0.0,0.0,36,0.00,,,0.00,Wunderground v.1.15,2013-07-08 06:20:00,
2013-07-08 00:25:00,81.4,51.9,29.80,East,101,0.0,0.0,36,0.00,,,0.00,Wunderground v.1.15,2013-07-08 06:25:00,
2013-07-08 00:30:00,81.4,52.6,29.80,East,101,0.0,4.0,37,0.00,,,0.00,Wunderground v.1.15,2013-07-08 06:30:00,
2013-07-08 00:35:00,81.1,53.1,29.80,East,101,0.0,4.0,38,0.00,,,0.00,Wunderground v.1.15,2013-07-08 06:35:00,
2013-07-08 00:40:00,80.8,52.8,29.80,East,101,0.0,0.0,38,0.00,,,0.00,Wunderground v.1.15,2013-07-08 06:40:00,
2013-07-08 00:45:00,80.5,53.3,29.80,East,101,0.0,0.0,39,0.00,,,0.00,Wunderground v.1.15,2013-07-08 06:45:00,
2013-07-08 00:50:00,80.2,51.6,29.80,East,101,0.0,0.0,37,0.00,,,0.00,Wunderground v.1.15,2013-07-08 06:50:00,
2013-07-08 00:55:00,80.1,53.6,29.80,East,101,0.0,0.0,40,0.00,,,0.00,Wunderground v.1.15,2013-07-08 06:55:00,
2013-07-08 01:00:00,79.9,53.4,29.80,East,101,0.0,0.0,40,0.00,,,0.00,Wunderground v.1.15,2013-07-08 07:00:00,
2013-07-08 01:05:00,79.8,53.3,29.80,East,101,0.0,0.0,40,0.00,,,0.00,Wunderground v.1.15,2013-07-08 07:05:00,
2013-07-08 01:10:00,79.6,53.8,29.80,East,101,0.0,0.0,41,0.00,,,0.00,Wunderground v.1.15,2013-07-08 07:10:00,
2013-07-08 01:15:00,79.4,54.3,29.80,East,101,0.0,0.0,42,0.00,,,0.00,Wunderground v.1.15,2013-07-08 07:15:00,
2013-07-08 01:20:00,79.3,53.6,29.80,East,101,0.0,0.0,41,0.00,,,0.00,Wunderground v.1.15,2013-07-08 07:20:00,
2013-07-08 01:25:00,79.1,54.0,29.80,East,101,0.0,0.0,42,0.00,,,0.00,Wunderground v.1.15,2013-07-08 07:25:00,
2013-07-08 01:30:00,78.9,53.9,29.81,East,101,0.0,1.0,42,0.00,,,0.00,Wunderground v.1.15,2013-07-08 07:30:00,
2013-07-08 01:35:00,78.8,53.8,29.81,East,101,0.0,1.0,42,0.00,,,0.00,Wunderground v.1.15,2013-07-08 07:35:00,
2013-07-08 01:40:00,78.7,54.3,29.81,East,101,0.0,0.0,43,0.00,,,0.00,Wunderground v.1.15,2013-07-08 07:40:00,
2013-07-08 01:45:00,78.6,53.6,29.81,East,101,0.0,0.0,42,0.00,,,0.00,Wunderground v.1.15,2013-07-08 07:45:00,
2013-07-08 01:50:00,78.4,54.0,29.81,East,101,0.0,0.0,43,0.00,,,0.00,Wunderground v.1.15,2013-07-08 07:50:00,
2013-07-08 01:55:00,78.2,53.9,29.81,East,101,0.0,0.0,43,0.00,,,0.00,Wunderground v.1.15,2013-07-08 07:55:00,
2013-07-08 02:00:00,78.0,53.7,29.82,East,101,0.0,0.0,43,0.00,,,0.00,Wunderground v.1.15,2013-07-08 08:00:00,
2013-07-08 02:05:00,77.9,54.2,29.82,East,101,0.0,0.0,44,0.00,,,0.00,Wunderground v.1.15,2013-07-08 08:05:00,
2013-07-08 02:10:00,77.8,54.8,29.82,East,101,0.0,0.0,45,0.00,,,0.00,Wunderground v.1.15,2013-07-08 08:10:00,
2013-07-08 02:15:00,77.6,54.6,29.82,East,101,0.0,0.0,45,0.00,,,0.00,Wunderground v.1.15,2013-07-08 08:15:00,
2013-07-08 02:20:00,77.5,53.9,29.82,East,101,0.0,0.0,44,0.00,,,0.00,Wunderground v.1.15,2013-07-08 08:20:00,
2013-07-08 02:25:00,77.4,53.8,29.82,East,101,0.0,0.0,44,0.00,,,0.00,Wunderground v.1.15,2013-07-08 08:25:00,
2013-07-08 02:30:00,77.4,53.8,29.83,East,101,0.0,0.0,44,0.00,,,0.00,Wunderground v.1.15,2013-07-08 08:30:00,
2013-07-08 02:35:00,77.6,52.7,29.83,NE,50,1.0,3.0,42,0.00,,,0.00,Wunderground v.1.15,2013-07-08 08:35:00,
2013-07-08 02:40:00,78.1,53.1,29.83,NNW,330,3.0,6.0,42,0.00,,,0.00,Wunderground v.1.15,2013-07-08 08:40:00,
2013-07-08 02:45:00,78.4,52.7,29.83,NNW,329,4.0,6.0,41,0.00,,,0.00,Wunderground v.1.15,2013-07-08 08:45:00,
2013-07-08 02:50:00,78.4,53.4,29.83,NNW,329,2.0,2.0,42,0.00,,,0.00,Wunderground v.1.15,2013-07-08 08:50:00,
2013-07-08 02:55:00,78.4,53.4,29.83,NNW,328,2.0,4.0,42,0.00,,,0.00,Wunderground v.1.15,2013-07-08 08:55:00,
2013-07-08 03:00:00,78.2,53.2,29.83,NNW,328,2.0,2.0,42,0.00,,,0.00,Wunderground v.1.15,2013-07-08 09:00:00,
2013-07-08 03:05:00,78.1,51.8,29.84,NNW,340,2.0,2.0,40,0.00,,,0.00,Wunderground v.1.15,2013-07-08 09:05:00,
2013-07-08 03:10:00,77.9,50.9,29.84,NW,305,4.0,8.0,39,0.00,,,0.00,Wunderground v.1.15,2013-07-08 09:10:00,
2013-07-08 03:15:00,77.6,50.7,29.84,NNW,336,6.0,8.0,39,0.00,,,0.00,Wunderground v.1.15,2013-07-08 09:15:00,
2013-07-08 03:20:00,77.3,50.4,29.84,NW,305,5.0,5.0,39,0.00,,,0.00,Wunderground v.1.15,2013-07-08 09:20:00,
2013-07-08 03:25:00,77.2,50.3,29.84,NW,325,4.0,5.0,39,0.00,,,0.00,Wunderground v.1.15,2013-07-08 09:25:00,
2013-07-08 03:30:00,77.1,50.2,29.84,NW,326,3.0,3.0,39,0.00,,,0.00,Wunderground v.1.15,2013-07-08 09:30:00,
2013-07-08 03:35:00,76.9,50.1,29.84,NW,323,3.0,4.0,39,0.00,,,0.00,Wunderground v.1.15,2013-07-08 09:35:00,
2013-07-08 03:40:00,76.8,50.6,29.84,NNW,331,3.0,4.0,40,0.00,,,0.00,Wunderground v.1.15,2013-07-08 09:40:00,
2013-07-08 03:45:00,76.6,50.5,29.84,NW,324,3.0,4.0,40,0.00,,,0.00,Wunderground v.1.15,2013-07-08 09:45:00,
2013-07-08 03:50:00,76.4,51.0,29.83,NW,324,2.0,2.0,41,0.00,,,0.00,Wunderground v.1.15,2013-07-08 09:50:00,
2013-07-08 03:55:00,76.2,50.8,29.84,NW,317,1.0,3.0,41,0.00,,,0.00,Wunderground v.1.15,2013-07-08 09:55:00,
2013-07-08 04:00:00,76.1,50.7,29.83,NW,317,1.0,1.0,41,0.00,,,0.00,Wunderground v.1.15,2013-07-08 10:00:00,
2013-07-08 04:05:00,76.0,50.6,29.84,NW,317,1.0,1.0,41,0.00,,,0.00,Wunderground v.1.15,2013-07-08 10:05:00,
2013-07-08 04:10:00,75.9,51.2,29.84,NW,317,0.0,0.0,42,0.00,,,0.00,Wunderground v.1.15,2013-07-08 10:10:00,
2013-07-08 04:15:00,75.7,51.0,29.84,NW,317,0.0,0.0,42,0.00,,,0.00,Wunderground v.1.15,2013-07-08 10:15:00,
2013-07-08 04:20:00,75.6,50.9,29.84,NW,317,0.0,0.0,42,0.00,,,0.00,Wunderground v.1.15,2013-07-08 10:20:00,
2013-07-08 04:25:00,75.4,50.7,29.84,NW,317,0.0,0.0,42,0.00,,,0.00,Wunderground v.1.15,2013-07-08 10:25:00,
2013-07-08 04:30:00,75.2,51.2,29.84,NW,317,0.0,7.0,43,0.00,,,0.00,Wunderground v.1.15,2013-07-08 10:30:00,
2013-07-08 04:35:00,75.1,51.1,29.84,NW,317,0.0,7.0,43,0.00,,,0.00,Wunderground v.1.15,2013-07-08 10:35:00,
2013-07-08 04:40:00,74.9,51.5,29.84,NW,317,0.0,0.0,44,0.00,,,0.00,Wunderground v.1.15,2013-07-08 10:40:00,
2013-07-08 04:45:00,74.8,52.0,29.84,NW,317,0.0,0.0,45,0.00,,,0.00,Wunderground v.1.15,2013-07-08 10:45:00,
2013-07-08 04:50:00,74.6,51.9,29.84,NW,317,0.0,0.0,45,0.00,,,0.00,Wunderground v.1.15,2013-07-08 10:50:00,
2013-07-08 04:55:00,74.4,51.1,29.84,NW,317,0.0,0.0,44,0.00,,,0.00,Wunderground v.1.15,2013-07-08 10:55:00,
2013-07-08 05:00:00,74.3,51.6,29.84,NW,317,0.0,0.0,45,0.00,,,0.00,Wunderground v.1.15,2013-07-08 11:00:00,
2013-07-08 05:05:00,74.1,51.4,29.84,NW,317,0.0,0.0,45,0.00,,,0.00,Wunderground v.1.15,2013-07-08 11:05:00,
2013-07-08 05:10:00,74.0,51.9,29.84,NW,317,0.0,0.0,46,0.00,,,0.00,Wunderground v.1.15,2013-07-08 11:10:00,
2013-07-08 05:15:00,73.8,52.3,29.84,NW,317,0.0,0.0,47,0.00,,,0.00,Wunderground v.1.15,2013-07-08 11:15:00,
2013-07-08 05:20:00,73.7,52.8,29.84,NW,317,0.0,0.0,48,0.00,,,0.00,Wunderground v.1.15,2013-07-08 11:20:00,
2013-07-08 05:25:00,73.5,52.6,29.84,NW,317,0.0,0.0,48,0.00,,,0.00,Wunderground v.1.15,2013-07-08 11:25:00,
2013-07-08 05:30:00,73.3,52.4,29.84,NW,317,0.0,0.0,48,0.00,,,0.00,Wunderground v.1.15,2013-07-08 11:30:00,
2013-07-08 05:35:00,73.0,52.7,29.84,NW,317,0.0,0.0,49,0.00,,,0.00,Wunderground v.1.15,2013-07-08 11:35:00,
2013-07-08 05:40:00,72.8,52.0,29.84,NW,317,0.0,0.0,48,0.00,,,0.00,Wunderground v.1.15,2013-07-08 11:40:00,
2013-07-08 05:45:00,72.6,52.3,29.84,NW,317,0.0,0.0,49,0.00,,,0.00,Wunderground v.1.15,2013-07-08 11:45:00,
2013-07-08 05:50:00,72.4,52.7,29.84,NW,317,0.0,0.0,50,0.00,,,0.00,Wunderground v.1.15,2013-07-08 11:50:00,
2013-07-08 05:55:00,72.2,52.5,29.84,NW,317,0.0,0.0,50,0.00,,,0.00,Wunderground v.1.15,2013-07-08 11:55:00,
2013-07-08 06:00:00,72.1,52.4,29.84,NW,317,0.0,0.0,50,0.00,,,0.00,Wunderground v.1.15,2013-07-08 12:00:00,
2013-07-08 06:05:00,71.9,52.8,29.84,NW,317,0.0,0.0,51,0.00,,,0.00,Wunderground v.1.15,2013-07-08 12:05:00,
2013-07-08 06:10:00,71.7,52.6,29.84,NW,317,0.0,0.0,51,0.00,,,0.00,Wunderground v.1.15,2013-07-08 12:10:00,
2013-07-08 06:15:00,71.6,52.5,29.84,NW,317,0.0,0.0,51,0.00,,,0.00,Wunderground v.1.15,2013-07-08 12:15:00,
2013-07-08 06:20:00,71.5,52.4,29.84,NW,317,0.0,0.0,51,0.00,,,0.00,Wunderground v.1.15,2013-07-08 12:20:00,
2013-07-08 06:25:00,71.4,52.9,29.84,NW,317,0.0,0.0,52,0.00,,,0.00,Wunderground v.1.15,2013-07-08 12:25:00,
2013-07-08 06:30:00,71.3,52.8,29.84,NW,317,0.0,0.0,52,0.00,,,0.00,Wunderground v.1.15,2013-07-08 12:30:00,
2013-07-08 06:35:00,71.3,52.8,29.84,NW,317,0.0,0.0,52,0.00,,,0.00,Wunderground v.1.15,2013-07-08 12:35:00,
2013-07-08 06:40:00,71.3,53.3,29.84,NW,317,0.0,0.0,53,0.00,,,0.00,Wunderground v.1.15,2013-07-08 12:40:00,
2013-07-08 06:45:00,71.3,53.3,29.84,NW,317,0.0,0.0,53,0.00,,,0.00,Wunderground v.1.15,2013-07-08 12:45:00,
2013-07-08 06:50:00,71.3,53.3,29.84,NW,317,0.0,0.0,53,0.00,,,0.00,Wunderground v.1.15,2013-07-08 12:50:00,
2013-07-08 06:55:00,71.5,54.0,29.84,NW,317,0.0,0.0,54,0.00,,,0.00,Wunderground v.1.15,2013-07-08 12:55:00,
2013-07-08 07:00:00,71.8,53.7,29.84,NW,317,0.0,0.0,53,0.00,,,0.00,Wunderground v.1.15,2013-07-08 13:00:00,
2013-07-08 07:05:00,72.1,54.0,29.85,NW,317,0.0,0.0,53,0.00,,,0.00,Wunderground v.1.15,2013-07-08 13:05:00,
2013-07-08 07:10:00,72.4,54.8,29.85,NW,317,0.0,0.0,54,0.00,,,0.00,Wunderground v.1.15,2013-07-08 13:10:00,
2013-07-08 07:15:00,72.6,55.0,29.85,NW,317,0.0,0.0,54,0.00,,,0.00,Wunderground v.1.15,2013-07-08 13:15:00,
2013-07-08 07:20:00,72.8,55.2,29.85,NW,317,0.0,0.0,54,0.00,,,0.00,Wunderground v.1.15,2013-07-08 13:20:00,
2013-07-08 07:25:00,73.0,54.9,29.85,NW,317,0.0,0.0,53,0.00,,,0.00,Wunderground v.1.15,2013-07-08 13:25:00,
2013-07-08 07:30:00,73.2,54.5,29.85,NW,317,0.0,0.0,52,0.00,,,0.00,Wunderground v.1.15,2013-07-08 13:30:00,
2013-07-08 07:35:00,73.5,54.8,29.85,NW,317,0.0,0.0,52,0.00,,,0.00,Wunderground v.1.15,2013-07-08 13:35:00,
2013-07-08 07:40:00,73.8,55.1,29.86,NW,317,0.0,0.0,52,0.00,,,0.00,Wunderground v.1.15,2013-07-08 13:40:00,
2013-07-08 07:45:00,74.1,54.8,29.86,NW,317,0.0,0.0,51,0.00,,,0.00,Wunderground v.1.15,2013-07-08 13:45:00,
2013-07-08 07:50:00,74.3,55.5,29.86,NW,317,0.0,0.0,52,0.00,,,0.00,Wunderground v.1.15,2013-07-08 13:50:00,
2013-07-08 07:55:00,74.6,55.8,29.87,NW,317,0.0,0.0,52,0.00,,,0.00,Wunderground v.1.15,2013-07-08 13:55:00,
2013-07-08 08:00:00,74.9,54.4,29.87,NW,317,0.0,0.0,49,0.00,,,0.00,Wunderground v.1.15,2013-07-08 14:00:00,
2013-07-08 08:05:00,75.2,54.7,29.87,NW,317,0.0,0.0,49,0.00,,,0.00,Wunderground v.1.15,2013-07-08 14:05:00,
2013-07-08 08:10:00,75.5,54.4,29.87,NW,317,0.0,0.0,48,0.00,,,0.00,Wunderground v.1.15,2013-07-08 14:10:00,
2013-07-08 08:15:00,75.7,54.6,29.88,NW,317,0.0,0.0,48,0.00,,,0.00,Wunderground v.1.15,2013-07-08 14:15:00,
2013-07-08 08:20:00,75.9,54.8,29.88,NW,317,0.0,0.0,48,0.00,,,0.00,Wunderground v.1.15,2013-07-08 14:20:00,
2013-07-08 08:25:00,76.0,54.9,29.88,NW,317,0.0,0.0,48,0.00,,,0.00,Wunderground v.1.15,2013-07-08 14:25:00,
2013-07-08 08:30:00,76.2,55.1,29.88,NW,317,0.0,0.0,48,0.00,,,0.00,Wunderground v.1.15,2013-07-08 14:30:00,
2013-07-08 08:35:00,76.3,54.6,29.89,NW,317,0.0,0.0,47,0.00,,,0.00,Wunderground v.1.15,2013-07-08 14:35:00,
2013-07-08 08:40:00,76.4,54.7,29.89,NW,317,0.0,0.0,47,0.00,,,0.00,Wunderground v.1.15,2013-07-08 14:40:00,
2013-07-08 08:45:00,76.5,54.8,29.89,NW,317,0.0,0.0,47,0.00,,,0.00,Wunderground v.1.15,2013-07-08 14:45:00,
2013-07-08 08:50:00,76.6,54.9,29.89,NW,317,0.0,0.0,47,0.00,,,0.00,Wunderground v.1.15,2013-07-08 14:50:00,
2013-07-08 08:55:00,77.0,55.2,29.89,NW,317,0.0,0.0,47,0.00,,,0.00,Wunderground v.1.15,2013-07-08 14:55:00,
2013-07-08 09:00:00,77.6,55.2,29.89,NW,321,0.0,0.0,46,0.00,,,0.00,Wunderground v.1.15,2013-07-08 15:00:00,
2013-07-08 09:05:00,78.1,55.0,29.89,NW,321,0.0,0.0,45,0.00,,,0.00,Wunderground v.1.15,2013-07-08 15:05:00,
2013-07-08 09:10:00,78.5,55.4,29.90,NW,321,0.0,0.0,45,0.00,,,0.00,Wunderground v.1.15,2013-07-08 15:10:00,
2013-07-08 09:15:00,78.7,55.6,29.90,NW,321,0.0,0.0,45,0.00,,,0.00,Wunderground v.1.15,2013-07-08 15:15:00,
2013-07-08 09:20:00,78.8,55.0,29.90,NW,321,0.0,0.0,44,0.00,,,0.00,Wunderground v.1.15,2013-07-08 15:20:00,
2013-07-08 09:25:00,79.2,54.1,29.90,NW,321,0.0,0.0,42,0.00,,,0.00,Wunderground v.1.15,2013-07-08 15:25:00,
2013-07-08 09:30:00,79.6,55.1,29.90,NW,321,0.0,1.0,43,0.00,,,0.00,Wunderground v.1.15,2013-07-08 15:30:00,
2013-07-08 09:35:00,80.0,54.8,29.90,NW,321,0.0,1.0,42,0.00,,,0.00,Wunderground v.1.15,2013-07-08 15:35:00,
2013-07-08 09:40:00,80.5,54.0,29.89,NW,321,0.0,0.0,40,0.00,,,0.00,Wunderground v.1.15,2013-07-08 15:40:00,
2013-07-08 09:45:00,81.4,55.4,29.90,NE,53,0.0,3.0,41,0.00,,,0.00,Wunderground v.1.15,2013-07-08 15:45:00,
2013-07-08 09:50:00,81.9,53.8,29.90,ENE,61,0.0,0.0,38,0.00,,,0.00,Wunderground v.1.15,2013-07-08 15:50:00,
2013-07-08 09:55:00,81.9,53.8,29.90,ENE,63,1.0,1.0,38,0.00,,,0.00,Wunderground v.1.15,2013-07-08 15:55:00,
2013-07-08 10:00:00,81.8,55.1,29.90,ENE,63,0.0,0.0,40,0.00,,,0.00,Wunderground v.1.15,2013-07-08 16:00:00,
2013-07-08 10:05:00,82.4,55.0,29.90,ENE,63,0.0,0.0,39,0.00,,,0.00,Wunderground v.1.15,2013-07-08 16:05:00,
2013-07-08 10:10:00,83.2,54.2,29.90,ENE,63,0.0,0.0,37,0.00,,,0.00,Wunderground v.1.15,2013-07-08 16:10:00,
2013-07-08 10:15:00,83.8,54.0,29.90,ENE,61,0.0,0.0,36,0.00,,,0.00,Wunderground v.1.15,2013-07-08 16:15:00,
2013-07-08 10:20:00,83.6,53.8,29.90,ENE,65,0.0,0.0,36,0.00,,,0.00,Wunderground v.1.15,2013-07-08 16:20:00,
2013-07-08 10:25:00,83.3,53.6,29.90,ENE,65,0.0,0.0,36,0.00,,,0.00,Wunderground v.1.15,2013-07-08 16:25:00,
2013-07-08 10:30:00,83.1,54.1,29.90,ENE,65,0.0,1.0,37,0.00,,,0.00,Wunderground v.1.15,2013-07-08 16:30:00,
2013-07-08 10:35:00,82.9,54.0,29.90,ENE,65,0.0,1.0,37,0.00,,,0.00,Wunderground v.1.15,2013-07-08 16:35:00,
2013-07-08 10:40:00,83.0,54.8,29.90,ENE,65,0.0,1.0,38,0.00,,,0.00,Wunderground v.1.15,2013-07-08 16:40:00,
2013-07-08 10:45:00,83.8,54.7,29.90,ENE,65,0.0,1.0,37,0.00,,,0.00,Wunderground v.1.15,2013-07-08 16:45:00,
2013-07-08 10:50:00,84.5,53.8,29.90,ENE,62,0.0,1.0,35,0.00,,,0.00,Wunderground v.1.15,2013-07-08 16:50:00,
2013-07-08 10:55:00,84.9,52.6,29.90,NNE,17,0.0,1.0,33,0.00,,,0.00,Wunderground v.1.15,2013-07-08 16:55:00,
2013-07-08 11:10:00,85.2,53.7,29.90,NNE,15,0.0,1.0,34,0.00,,,0.00,Wunderground v.1.15,2013-07-08 17:10:00,
2013-07-08 11:25:00,86.2,52.9,29.89,NNE,15,0.0,1.0,32,0.00,,,0.00,Wunderground v.1.15,2013-07-08 17:25:00,
2013-07-08 11:30:00,86.2,52.9,29.89,NNE,15,0.0,1.0,32,0.00,,,0.00,Wunderground v.1.15,2013-07-08 17:30:00,
2013-07-08 11:35:00,86.3,53.0,29.89,NNE,15,0.0,1.0,32,0.00,,,0.00,Wunderground v.1.15,2013-07-08 17:35:00,
2013-07-08 11:40:00,86.5,53.1,29.89,NNE,15,0.0,0.0,32,0.00,,,0.00,Wunderground v.1.15,2013-07-08 17:40:00,
2013-07-08 11:45:00,86.8,53.4,29.89,NNE,15,0.0,0.0,32,0.00,,,0.00,Wunderground v.1.15,2013-07-08 17:45:00,
2013-07-08 11:50:00,87.2,52.9,29.88,NNE,15,0.0,0.0,31,0.00,,,0.00,Wunderground v.1.15,2013-07-08 17:50:00,
2013-07-08 11:55:00,87.3,53.0,29.88,NNE,15,0.0,0.0,31,0.00,,,0.00,Wunderground v.1.15,2013-07-08 17:55:00,
2013-07-08 12:15:00,87.8,53.4,29.87,NE,34,1.0,1.0,31,0.00,,,0.00,Wunderground v.1.15,2013-07-08 18:15:00,
2013-07-08 12:20:00,88.5,54.0,29.87,NE,34,0.0,0.0,31,0.00,,,0.00,Wunderground v.1.15,2013-07-08 18:20:00,
2013-07-08 12:25:00,89.1,52.7,29.86,NE,34,0.0,0.0,29,0.00,,,0.00,Wunderground v.1.15,2013-07-08 18:25:00,
2013-07-08 12:35:00,89.7,53.2,29.86,NE,34,0.0,2.0,29,0.00,,,0.00,Wunderground v.1.15,2013-07-08 18:35:00,
2013-07-08 12:40:00,89.8,53.3,29.85,NE,34,0.0,0.0,29,0.00,,,0.00,Wunderground v.1.15,2013-07-08 18:40:00,
2013-07-08 12:50:00,89.6,53.1,29.85,ENE,58,1.0,1.0,29,0.00,,,0.00,Wunderground v.1.15,2013-07-08 18:50:00,
2013-07-08 13:05:00,89.7,53.2,29.84,ENE,58,0.0,1.0,29,0.00,,,0.00,Wunderground v.1.15,2013-07-08 19:05:00,
2013-07-08 13:10:00,89.7,53.2,29.83,ENE,58,0.0,1.0,29,0.00,,,0.00,Wunderground v.1.15,2013-07-08 19:10:00,
2013-07-08 13:15:00,89.8,53.3,29.83,ENE,57,0.0,1.0,29,0.00,,,0.00,Wunderground v.1.15,2013-07-08 19:15:00,
2013-07-08 13:20:00,90.1,53.6,29.83,ENE,57,0.0,0.0,29,0.00,,,0.00,Wunderground v.1.15,2013-07-08 19:20:00,
2013-07-08 13:25:00,90.3,51.8,29.82,ENE,57,0.0,0.0,27,0.00,,,0.00,Wunderground v.1.15,2013-07-08 19:25:00,
2013-07-08 13:35:00,90.6,52.0,29.82,ENE,57,1.0,3.0,27,0.00,,,0.00,Wunderground v.1.15,2013-07-08 19:35:00,
2013-07-08 13:40:00,90.6,53.0,29.81,ENE,57,1.0,1.0,28,0.00,,,0.00,Wunderground v.1.15,2013-07-08 19:40:00,
2013-07-08 13:45:00,90.6,52.0,29.81,ENE,57,0.0,1.0,27,0.00,,,0.00,Wunderground v.1.15,2013-07-08 19:45:00,
2013-07-08 13:50:00,90.9,52.3,29.81,ENE,57,0.0,0.0,27,0.00,,,0.00,Wunderground v.1.15,2013-07-08 19:50:00,
2013-07-08 13:55:00,90.9,52.3,29.80,ENE,57,0.0,0.0,27,0.00,,,0.00,Wunderground v.1.15,2013-07-08 19:55:00,
2013-07-08 14:10:00,91.2,52.5,29.79,NE,55,1.0,1.0,27,0.00,,,0.00,Wunderground v.1.15,2013-07-08 20:10:00,
2013-07-08 14:15:00,91.8,52.0,29.79,NE,55,0.0,1.0,26,0.00,,,0.00,Wunderground v.1.15,2013-07-08 20:15:00,
2013-07-08 14:20:00,92.1,52.3,29.79,ENE,67,1.0,2.0,26,0.00,,,0.00,Wunderground v.1.15,2013-07-08 20:20:00,
2013-07-08 14:35:00,92.4,52.5,29.79,ENE,78,1.0,1.0,26,0.00,,,0.00,Wunderground v.1.15,2013-07-08 20:35:00,
2013-07-08 14:45:00,93.0,52.0,29.78,ENE,74,1.0,2.0,25,0.00,,,0.00,Wunderground v.1.15,2013-07-08 20:45:00,
2013-07-08 15:00:00,93.9,51.6,29.77,ENE,74,0.0,0.0,24,0.00,,,0.00,Wunderground v.1.15,2013-07-08 21:00:00,
2013-07-08 15:10:00,94.4,52.0,29.78,ENE,74,0.0,0.0,24,0.00,,,0.00,Wunderground v.1.15,2013-07-08 21:10:00,
2013-07-08 15:15:00,94.2,50.7,29.77,ENE,74,0.0,0.0,23,0.00,,,0.00,Wunderground v.1.15,2013-07-08 21:15:00,
2013-07-08 15:20:00,94.2,51.9,29.78,ENE,74,0.0,0.0,24,0.00,,,0.00,Wunderground v.1.15,2013-07-08 21:20:00,
2013-07-08 15:25:00,94.2,51.9,29.77,NE,47,0.0,1.0,24,0.00,,,0.00,Wunderground v.1.15,2013-07-08 21:25:00,
2013-07-08 15:35:00,94.1,50.6,29.77,NE,47,1.0,3.0,23,0.00,,,0.00,Wunderground v.1.15,2013-07-08 21:35:00,
2013-07-08 15:40:00,94.5,51.0,29.77,NE,47,1.0,1.0,23,0.00,,,0.00,Wunderground v.1.15,2013-07-08 21:40:00,
2013-07-08 15:45:00,94.7,51.1,29.78,East,93,1.0,1.0,23,0.00,,,0.00,Wunderground v.1.15,2013-07-08 21:45:00,
2013-07-08 15:50:00,94.1,51.8,29.77,East,90,2.0,5.0,24,0.00,,,0.00,Wunderground v.1.15,2013-07-08 21:50:00,
2013-07-08 16:00:00,92.1,52.3,29.76,ESE,112,5.0,6.0,26,0.00,,,0.00,Wunderground v.1.15,2013-07-08 22:00:00,
2013-07-08 16:10:00,91.9,51.1,29.76,ENE,78,6.0,6.0,25,0.00,,,0.00,Wunderground v.1.15,2013-07-08 22:10:00,
2013-07-08 16:15:00,91.9,51.1,29.76,ENE,69,5.0,10.0,25,0.00,,,0.00,Wunderground v.1.15,2013-07-08 22:15:00,
2013-07-08 16:20:00,91.3,51.6,29.76,East,85,5.0,5.0,26,0.00,,,0.00,Wunderground v.1.15,2013-07-08 22:20:00,
2013-07-08 16:25:00,90.5,50.9,29.76,ENE,74,5.0,6.0,26,0.00,,,0.00,Wunderground v.1.15,2013-07-08 22:25:00,
2013-07-08 16:30:00,90.4,51.9,29.76,ESE,113,5.0,5.0,27,0.00,,,0.00,Wunderground v.1.15,2013-07-08 22:30:00,
2013-07-08 16:45:00,91.4,52.7,29.76,East,95,4.0,4.0,27,0.00,,,0.00,Wunderground v.1.15,2013-07-08 22:45:00,
2013-07-08 17:00:00,90.8,52.2,29.77,East,88,4.0,6.0,27,0.00,,,0.00,Wunderground v.1.15,2013-07-08 23:00:00,
2013-07-08 17:05:00,90.5,52.0,29.77,ESE,110,4.0,6.0,27,0.00,,,0.00,Wunderground v.1.15,2013-07-08 23:05:00,
2013-07-08 17:15:00,90.4,51.9,29.77,East,101,3.0,4.0,27,0.00,,,0.00,Wunderground v.1.15,2013-07-08 23:15:00,
2013-07-08 17:30:00,89.0,51.7,29.76,East,92,3.0,11.0,28,0.00,,,0.00,Wunderground v.1.15,2013-07-08 23:30:00,
2013-07-08 17:35:00,88.8,52.4,29.76,ENE,61,3.0,11.0,29,0.00,,,0.00,Wunderground v.1.15,2013-07-08 23:35:00,
2013-07-08 17:40:00,88.7,52.4,29.76,ESE,105,2.0,2.0,29,0.00,,,0.00,Wunderground v.1.15,2013-07-08 23:40:00,
2013-07-08 17:45:00,88.5,52.2,29.76,East,94,2.0,2.0,29,0.00,,,0.00,Wunderground v.1.15,2013-07-08 23:45:00,
2013-07-08 17:50:00,88.3,52.0,29.76,East,101,3.0,3.0,29,0.00,,,0.00,Wunderground v.1.15,2013-07-08 23:50:00,
2013-07-08 18:10:00,87.5,53.1,29.76,ESE,105,3.0,3.0,31,0.00,,,0.00,Wunderground v.1.15,2013-07-09 00:10:00,
2013-07-08 18:15:00,87.5,52.2,29.76,East,80,3.0,7.0,30,0.00,,,0.00,Wunderground v.1.15,2013-07-09 00:15:00,
2013-07-08 18:20:00,87.5,52.2,29.76,East,98,3.0,10.0,30,0.00,,,0.00,Wunderground v.1.15,2013-07-09 00:20:00,
2013-07-08 18:25:00,87.4,52.2,29.77,East,82,3.0,10.0,30,0.00,,,0.00,Wunderground v.1.15,2013-07-09 00:25:00,
2013-07-08 18:30:00,87.5,52.2,29.77,East,96,3.0,9.0,30,0.00,,,0.00,Wunderground v.1.15,2013-07-09 00:30:00,
2013-07-08 18:35:00,87.5,52.2,29.77,East,95,3.0,9.0,30,0.00,,,0.00,Wunderground v.1.15,2013-07-09 00:35:00,
2013-07-08 18:45:00,87.2,52.0,29.77,ESE,121,3.0,4.0,30,0.00,,,0.00,Wunderground v.1.15,2013-07-09 00:45:00,
2013-07-08 19:00:00,87.0,51.8,29.78,ESE,105,3.0,3.0,30,0.00,,,0.00,Wunderground v.1.15,2013-07-09 01:00:00,
2013-07-08 19:10:00,86.9,52.6,29.78,East,94,2.0,2.0,31,0.00,,,0.00,Wunderground v.1.15,2013-07-09 01:10:00,
2013-07-08 19:20:00,86.6,52.4,29.78,East,84,2.0,4.0,31,0.00,,,0.00,Wunderground v.1.15,2013-07-09 01:20:00,
2013-07-08 19:25:00,86.5,53.1,29.78,East,85,2.0,4.0,32,0.00,,,0.00,Wunderground v.1.15,2013-07-09 01:25:00,
2013-07-08 19:30:00,86.4,53.1,29.79,ENE,74,2.0,5.0,32,0.00,,,0.00,Wunderground v.1.15,2013-07-09 01:30:00,
2013-07-08 19:40:00,86.2,52.9,29.79,ESE,109,2.0,2.0,32,0.00,,,0.00,Wunderground v.1.15,2013-07-09 01:40:00,
2013-07-08 19:55:00,85.8,52.5,29.80,East,80,3.0,3.0,32,0.00,,,0.00,Wunderground v.1.15,2013-07-09 01:55:00,
2013-07-08 20:00:00,85.7,52.4,29.81,East,79,2.0,2.0,32,0.00,,,0.00,Wunderground v.1.15,2013-07-09 02:00:00,
2013-07-08 20:05:00,85.7,52.4,29.81,ESE,115,1.0,2.0,32,0.00,,,0.00,Wunderground v.1.15,2013-07-09 02:05:00,
2013-07-08 20:15:00,85.6,52.4,29.81,ESE,112,1.0,1.0,32,0.00,,,0.00,Wunderground v.1.15,2013-07-09 02:15:00,
2013-07-08 20:20:00,85.6,52.4,29.82,ESE,112,1.0,1.0,32,0.00,,,0.00,Wunderground v.1.15,2013-07-09 02:20:00,
2013-07-08 20:25:00,85.6,52.4,29.83,NNW,331,1.0,6.0,32,0.00,,,0.00,Wunderground v.1.15,2013-07-09 02:25:00,
2013-07-08 20:30:00,85.0,52.7,29.83,NNW,329,3.0,6.0,33,0.00,,,0.00,Wunderground v.1.15,2013-07-09 02:30:00,
2013-07-08 20:40:00,83.1,53.4,29.86,NNW,332,3.0,3.0,36,0.00,,,0.00,Wunderground v.1.15,2013-07-09 02:40:00,
2013-07-08 20:45:00,81.5,57.5,29.88,WSW,250,3.0,3.0,44,0.00,,,0.00,Wunderground v.1.15,2013-07-09 02:45:00,
2013-07-08 21:00:00,71.0,59.9,29.88,North,360,2.0,3.0,68,0.36,,,0.23,Wunderground v.1.15,2013-07-09 03:00:00,
2013-07-08 21:05:00,69.1,60.1,29.89,WNW,288,2.0,3.0,73,0.16,,,0.24,Wunderground v.1.15,2013-07-09 03:05:00,
2013-07-08 21:10:00,68.1,59.9,29.90,SW,223,1.0,1.0,75,0.09,,,0.24,Wunderground v.1.15,2013-07-09 03:10:00,
2013-07-08 21:15:00,67.5,60.0,29.92,SW,224,1.0,3.0,77,0.05,,,0.24,Wunderground v.1.15,2013-07-09 03:15:00,
2013-07-08 21:20:00,67.0,59.9,29.92,SW,224,1.0,2.0,78,0.00,,,0.24,Wunderground v.1.15,2013-07-09 03:20:00,
2013-07-08 21:45:00,66.5,60.1,29.94,SW,227,0.0,0.0,80,0.00,,,0.25,Wunderground v.1.15,2013-07-09 03:45:00,
2013-07-08 21:50:00,66.7,60.7,29.94,SW,227,0.0,0.0,81,0.00,,,0.25,Wunderground v.1.15,2013-07-09 03:50:00,
2013-07-08 22:05:00,67.2,60.8,29.93,SW,225,0.0,1.0,80,0.00,,,0.25,Wunderground v.1.15,2013-07-09 04:05:00,
2013-07-08 22:10:00,67.3,60.9,29.94,SW,225,0.0,0.0,80,0.00,,,0.25,Wunderground v.1.15,2013-07-09 04:10:00,
2013-07-08 22:15:00,67.3,60.2,29.94,SW,225,0.0,0.0,78,0.00,,,0.25,Wunderground v.1.15,2013-07-09 04:15:00,
2013-07-08 22:20:00,67.4,60.7,29.93,SW,225,0.0,0.0,79,0.00,,,0.25,Wunderground v.1.15,2013-07-09 04:20:00,
2013-07-08 22:25:00,67.5,60.8,29.93,SW,225,0.0,0.0,79,0.00,,,0.25,Wunderground v.1.15,2013-07-09 04:25:00,
2013-07-08 22:30:00,67.5,61.1,29.93,SW,225,0.0,4.0,80,0.00,,,0.25,Wunderground v.1.15,2013-07-09 04:30:00,
2013-07-08 22:35:00,67.4,61.0,29.93,SW,225,0.0,4.0,80,0.00,,,0.25,Wunderground v.1.15,2013-07-09 04:35:00,
2013-07-08 22:45:00,67.4,61.4,29.92,SW,225,0.0,0.0,81,0.00,,,0.25,Wunderground v.1.15,2013-07-09 04:45:00,
2013-07-08 22:50:00,67.4,60.7,29.92,SW,225,0.0,0.0,79,0.00,,,0.25,Wunderground v.1.15,2013-07-09 04:50:00,
2013-07-08 22:55:00,67.5,61.1,29.93,SW,225,0.0,0.0,80,0.00,,,0.25,Wunderground v.1.15,2013-07-09 04:55:00,
2013-07-08 23:00:00,67.7,61.7,29.93,SW,225,0.0,0.0,81,0.00,,,0.25,Wunderground v.1.15,2013-07-09 05:00:00,
2013-07-08 23:05:00,67.7,61.0,29.93,SW,225,0.0,0.0,79,0.00,,,0.25,Wunderground v.1.15,2013-07-09 05:05:00,
2013-07-08 23:10:00,67.6,59.4,29.93,SW,225,0.0,0.0,75,0.00,,,0.25,Wunderground v.1.15,2013-07-09 05:10:00,
2013-07-08 23:15:00,67.7,58.7,29.93,SW,225,0.0,0.0,73,0.00,,,0.25,Wunderground v.1.15,2013-07-09 05:15:00,
2013-07-08 23:20:00,67.9,59.3,29.93,SW,225,0.0,0.0,74,0.00,,,0.25,Wunderground v.1.15,2013-07-09 05:20:00,
2013-07-08 23:25:00,68.1,59.9,29.94,SW,225,0.0,0.0,75,0.00,,,0.25,Wunderground v.1.15,2013-07-09 05:25:00,
2013-07-08 23:30:00,68.1,60.2,29.94,SW,225,0.0,0.0,76,0.00,,,0.25,Wunderground v.1.15,2013-07-09 05:30:00,
2013-07-08 23:35:00,68.1,60.6,29.94,SW,225,0.0,0.0,77,0.00,,,0.25,Wunderground v.1.15,2013-07-09 05:35:00,
2013-07-08 23:40:00,68.2,60.7,29.94,SW,225,0.0,0.0,77,0.00,,,0.25,Wunderground v.1.15,2013-07-09 05:40:00,
2013-07-08 23:50:00,68.3,61.2,29.94,SW,225,0.0,0.0,78,0.00,,,0.25,Wunderground v.1.15,2013-07-09 05:50:00,
2013-07-08 23:55:00,68.3,60.8,29.94,SW,225,0.0,0.0,77,0.00,,,0.25,Wunderground v.1.15,2013-07-09 05:55:00,